createdAt,value
2023-04-19T00:00:14.307Z,0.00
2023-04-19T00:01:14.269Z,0.00
2023-04-19T00:02:14.269Z,0.00
2023-04-19T00:03:14.369Z,0.00
2023-04-19T00:04:14.977Z,0.00
2023-04-19T00:05:14.256Z,0.00
2023-04-19T00:06:14.208Z,0.00
2023-04-19T00:07:14.173Z,0.00
2023-04-19T00:08:14.184Z,0.00
2023-04-19T00:09:14.192Z,0.00
2023-04-19T00:10:14.168Z,0.00
2023-04-19T00:11:13.410Z,0.00
2023-04-19T00:12:14.111Z,0.00
2023-04-19T00:13:14.111Z,0.00
2023-04-19T00:14:15.099Z,0.00
2023-04-19T00:15:14.079Z,0.00
2023-04-19T00:16:13.829Z,0.00
2023-04-19T00:17:14.026Z,0.00
2023-04-19T00:18:13.796Z,0.00
2023-04-19T00:19:13.761Z,0.00
2023-04-19T00:20:14.012Z,0.00
2023-04-19T00:21:14.002Z,0.00
2023-04-19T00:22:14.225Z,0.00
2023-04-19T00:23:13.970Z,0.00
2023-04-19T00:24:14.238Z,0.00
2023-04-19T00:25:13.949Z,0.00
2023-04-19T00:26:13.929Z,0.00
2023-04-19T00:27:13.532Z,0.00
2023-04-19T00:28:13.901Z,0.00
2023-04-19T00:29:13.891Z,0.00
2023-04-19T00:30:14.630Z,0.00
2023-04-19T00:31:13.943Z,0.00
2023-04-19T00:32:13.649Z,0.00
2023-04-19T00:33:13.883Z,0.00
2023-04-19T00:34:14.134Z,0.00
2023-04-19T00:35:13.745Z,0.00
2023-04-19T00:36:13.814Z,0.00
2023-04-19T00:37:14.513Z,0.00
2023-04-19T00:38:14.488Z,0.00
2023-04-19T00:39:14.499Z,0.00
2023-04-19T00:40:14.457Z,0.00
2023-04-19T00:41:14.469Z,0.00
2023-04-19T00:42:14.461Z,0.00
2023-04-19T00:43:14.417Z,0.00
2023-04-19T00:44:14.781Z,0.00
2023-04-19T00:45:14.408Z,0.00
2023-04-19T00:46:14.409Z,0.00
2023-04-19T00:47:14.374Z,0.00
2023-04-19T00:48:14.361Z,0.00
2023-04-19T00:49:14.360Z,0.00
2023-04-19T00:50:14.384Z,0.00
2023-04-19T00:51:13.608Z,0.00
2023-04-19T00:52:14.318Z,0.00
2023-04-19T00:53:13.558Z,0.00
2023-04-19T00:54:13.850Z,0.00
2023-04-19T00:55:13.584Z,0.00
2023-04-19T00:56:13.526Z,0.00
2023-04-19T00:57:14.195Z,0.00
2023-04-19T00:58:13.505Z,0.00
2023-04-19T00:59:12.844Z,0.00
2023-04-19T01:00:13.467Z,0.00
2023-04-19T01:01:13.487Z,0.00
2023-04-19T01:02:13.476Z,0.00
2023-04-19T01:03:13.602Z,0.00
2023-04-19T01:04:13.613Z,0.00
2023-04-19T01:05:13.404Z,0.00
2023-04-19T01:06:13.420Z,0.00
2023-04-19T01:07:13.348Z,0.00
2023-04-19T01:08:13.586Z,0.00
2023-04-19T01:09:13.361Z,0.00
2023-04-19T01:10:13.343Z,0.00
2023-04-19T01:11:13.321Z,0.00
2023-04-19T01:12:13.990Z,0.00
2023-04-19T01:13:13.289Z,0.00
2023-04-19T01:14:13.425Z,0.00
2023-04-19T01:15:13.257Z,0.00
2023-04-19T01:16:13.317Z,0.00
2023-04-19T01:17:13.208Z,0.00
2023-04-19T01:18:13.222Z,0.00
2023-04-19T01:19:13.932Z,0.00
2023-04-19T01:20:13.193Z,0.00
2023-04-19T01:21:13.188Z,0.00
2023-04-19T01:22:13.150Z,0.00
2023-04-19T01:23:13.149Z,0.00
2023-04-19T01:24:13.242Z,0.00
2023-04-19T01:25:13.807Z,0.00
2023-04-19T01:26:13.117Z,0.00
2023-04-19T01:27:13.109Z,0.00
2023-04-19T01:28:13.774Z,0.00
2023-04-19T01:29:13.070Z,0.00
2023-04-19T01:30:13.070Z,0.00
2023-04-19T01:31:12.520Z,0.00
2023-04-19T01:32:13.066Z,0.00
2023-04-19T01:33:13.004Z,0.00
2023-04-19T01:34:13.182Z,0.00
2023-04-19T01:35:12.999Z,0.00
2023-04-19T01:36:12.703Z,0.00
2023-04-19T01:37:12.958Z,0.00
2023-04-19T01:38:12.948Z,0.00
2023-04-19T01:39:12.685Z,0.00
2023-04-19T01:40:12.692Z,0.00
2023-04-19T01:41:12.913Z,0.00
2023-04-19T01:42:12.889Z,0.00
2023-04-19T01:43:12.874Z,0.00
2023-04-19T01:45:12.848Z,0.00
2023-04-19T01:46:13.575Z,0.00
2023-04-19T01:47:12.847Z,0.00
2023-04-19T01:48:12.794Z,0.00
2023-04-19T01:49:12.816Z,0.00
2023-04-19T01:50:12.793Z,0.00
2023-04-19T01:51:12.768Z,0.00
2023-04-19T01:52:12.791Z,0.00
2023-04-19T01:53:12.733Z,0.00
2023-04-19T01:54:12.896Z,0.00
2023-04-19T01:55:12.918Z,0.00
2023-04-19T01:56:12.707Z,0.00
2023-04-19T01:57:13.415Z,0.00
2023-04-19T01:58:12.669Z,0.00
2023-04-19T01:59:12.658Z,0.00
2023-04-19T02:00:13.316Z,0.00
2023-04-19T02:01:12.728Z,0.00
2023-04-19T02:02:13.394Z,0.00
2023-04-19T02:03:12.670Z,0.00
2023-04-19T02:04:12.622Z,0.00
2023-04-19T02:05:12.579Z,0.00
2023-04-19T02:06:13.245Z,0.00
2023-04-19T02:07:12.551Z,0.00
2023-04-19T02:08:12.525Z,0.00
2023-04-19T02:09:12.546Z,0.00
2023-04-19T02:10:12.512Z,0.00
2023-04-19T02:11:12.501Z,0.00
2023-04-19T02:12:12.514Z,0.00
2023-04-19T02:13:12.451Z,0.00
2023-04-19T02:14:12.459Z,0.00
2023-04-19T02:15:12.465Z,0.00
2023-04-19T02:16:13.192Z,0.00
2023-04-19T02:17:12.425Z,0.00
2023-04-19T02:18:12.386Z,0.00
2023-04-19T02:19:12.399Z,0.00
2023-04-19T02:20:12.390Z,0.00
2023-04-19T02:21:12.373Z,0.00
2023-04-19T02:22:12.353Z,0.00
2023-04-19T02:23:12.310Z,0.00
2023-04-19T02:24:12.336Z,0.00
2023-04-19T02:25:12.989Z,0.00
2023-04-19T02:26:12.297Z,0.00
2023-04-19T02:27:12.302Z,0.00
2023-04-19T02:28:12.240Z,0.00
2023-04-19T02:29:12.251Z,0.00
2023-04-19T02:30:12.260Z,0.00
2023-04-19T02:31:12.241Z,0.00
2023-04-19T02:32:11.920Z,0.00
2023-04-19T02:33:12.190Z,0.00
2023-04-19T02:34:12.263Z,0.00
2023-04-19T02:35:12.181Z,0.00
2023-04-19T02:36:12.170Z,0.00
2023-04-19T02:37:11.918Z,0.00
2023-04-19T02:38:11.914Z,0.00
2023-04-19T02:39:12.139Z,0.00
2023-04-19T02:40:12.795Z,0.00
2023-04-19T02:41:12.096Z,0.00
2023-04-19T02:42:12.100Z,0.00
2023-04-19T02:43:12.041Z,0.00
2023-04-19T02:44:12.099Z,0.00
2023-04-19T02:45:12.058Z,0.00
2023-04-19T02:46:12.042Z,0.00
2023-04-19T02:47:12.014Z,0.00
2023-04-19T02:48:12.048Z,0.00
2023-04-19T02:49:11.978Z,0.00
2023-04-19T02:50:11.968Z,0.00
2023-04-19T02:51:11.966Z,0.00
2023-04-19T02:52:12.611Z,0.00
2023-04-19T02:53:11.917Z,0.00
2023-04-19T02:54:11.949Z,0.00
2023-04-19T02:55:11.899Z,0.00
2023-04-19T02:56:12.604Z,0.00
2023-04-19T02:57:11.895Z,0.00
2023-04-19T02:58:12.540Z,0.00
2023-04-19T02:59:11.852Z,0.00
2023-04-19T03:00:12.580Z,0.00
2023-04-19T03:01:12.591Z,0.00
2023-04-19T03:02:12.561Z,0.00
2023-04-19T03:03:12.647Z,0.00
2023-04-19T03:04:12.555Z,0.00
2023-04-19T03:05:12.483Z,0.00
2023-04-19T03:06:12.496Z,0.00
2023-04-19T03:07:11.736Z,0.00
2023-04-19T03:08:12.469Z,0.00
2023-04-19T03:09:12.446Z,0.00
2023-04-19T03:10:11.710Z,0.00
2023-04-19T03:11:11.721Z,0.00
2023-04-19T03:12:11.673Z,0.00
2023-04-19T03:13:11.903Z,0.00
2023-04-19T03:14:11.655Z,0.00
2023-04-19T03:15:11.867Z,0.00
2023-04-19T03:16:11.642Z,0.00
2023-04-19T03:17:12.281Z,0.00
2023-04-19T03:18:11.569Z,0.00
2023-04-19T03:19:12.256Z,0.00
2023-04-19T03:20:12.241Z,0.00
2023-04-19T03:21:11.601Z,0.00
2023-04-19T03:22:11.555Z,0.00
2023-04-19T03:23:11.514Z,0.00
2023-04-19T03:24:11.501Z,0.00
2023-04-19T03:25:11.734Z,0.00
2023-04-19T03:26:11.474Z,0.00
2023-04-19T03:27:11.464Z,0.00
2023-04-19T03:28:12.180Z,0.00
2023-04-19T03:29:11.428Z,0.00
2023-04-19T03:30:11.424Z,0.00
2023-04-19T03:31:11.447Z,0.00
2023-04-19T03:32:11.388Z,0.00
2023-04-19T03:33:11.247Z,0.00
2023-04-19T03:34:11.366Z,0.00
2023-04-19T03:35:11.345Z,0.00
2023-04-19T03:36:12.029Z,0.00
2023-04-19T03:37:12.004Z,0.00
2023-04-19T03:38:11.286Z,0.00
2023-04-19T03:39:11.295Z,0.00
2023-04-19T03:40:11.298Z,0.00
2023-04-19T03:41:11.266Z,0.00
2023-04-19T03:42:11.258Z,0.00
2023-04-19T03:43:11.229Z,0.00
2023-04-19T03:44:11.225Z,0.00
2023-04-19T03:45:11.229Z,0.00
2023-04-19T03:46:11.265Z,0.00
2023-04-19T03:47:11.187Z,0.00
2023-04-19T03:48:11.952Z,0.00
2023-04-19T03:49:11.398Z,0.00
2023-04-19T03:50:11.143Z,0.00
2023-04-19T03:51:11.814Z,0.00
2023-04-19T03:52:11.786Z,0.00
2023-04-19T03:53:11.075Z,0.00
2023-04-19T03:54:11.092Z,0.00
2023-04-19T03:55:11.118Z,0.00
2023-04-19T03:56:11.067Z,0.00
2023-04-19T03:57:11.059Z,0.00
2023-04-19T03:58:11.730Z,0.00
2023-04-19T03:59:10.793Z,0.00
2023-04-19T04:00:10.819Z,0.00
2023-04-19T04:01:10.994Z,0.00
2023-04-19T04:02:11.113Z,0.00
2023-04-19T04:03:11.138Z,0.00
2023-04-19T04:04:11.065Z,0.00
2023-04-19T04:05:11.072Z,0.00
2023-04-19T04:06:10.985Z,0.00
2023-04-19T04:07:10.916Z,0.00
2023-04-19T04:08:10.899Z,0.00
2023-04-19T04:09:10.890Z,0.00
2023-04-19T04:10:10.877Z,0.00
2023-04-19T04:11:10.850Z,0.00
2023-04-19T04:12:10.854Z,0.00
2023-04-19T04:13:11.793Z,0.00
2023-04-19T04:14:10.813Z,0.00
2023-04-19T04:15:11.525Z,0.00
2023-04-19T04:16:10.833Z,0.00
2023-04-19T04:17:10.767Z,0.00
2023-04-19T04:18:10.764Z,0.00
2023-04-19T04:19:10.746Z,0.00
2023-04-19T04:20:10.746Z,0.00
2023-04-19T04:21:11.450Z,0.00
2023-04-19T04:22:10.694Z,0.00
2023-04-19T04:23:10.686Z,0.00
2023-04-19T04:24:10.702Z,0.00
2023-04-19T04:25:10.902Z,0.00
2023-04-19T04:26:10.646Z,0.00
2023-04-19T04:27:10.643Z,5.62
2023-04-19T04:28:10.612Z,5.62
2023-04-19T04:29:11.294Z,5.62
2023-04-19T04:30:11.281Z,5.62
2023-04-19T04:31:10.586Z,5.62
2023-04-19T04:32:11.429Z,5.62
2023-04-19T04:33:10.800Z,5.62
2023-04-19T04:34:10.550Z,11.25
2023-04-19T04:35:10.590Z,11.25
2023-04-19T04:36:10.521Z,11.25
2023-04-19T04:37:10.735Z,11.25
2023-04-19T04:38:21.549Z,11.25
2023-04-19T04:39:11.483Z,11.25
2023-04-19T04:40:10.476Z,16.88
2023-04-19T04:41:10.469Z,16.88
2023-04-19T04:42:10.452Z,16.88
2023-04-19T04:43:10.681Z,16.88
2023-04-19T04:44:12.999Z,16.88
2023-04-19T04:45:10.641Z,22.50
2023-04-19T04:46:10.455Z,22.50
2023-04-19T04:47:10.388Z,22.50
2023-04-19T04:48:10.284Z,22.50
2023-04-19T04:49:11.039Z,28.12
2023-04-19T04:50:10.354Z,28.12
2023-04-19T04:51:10.346Z,28.12
2023-04-19T04:52:10.325Z,33.75
2023-04-19T04:53:12.784Z,33.75
2023-04-19T04:54:10.061Z,33.75
2023-04-19T04:55:10.019Z,39.38
2023-04-19T04:56:10.022Z,39.38
2023-04-19T04:57:10.032Z,39.38
2023-04-19T04:58:10.027Z,39.38
2023-04-19T04:59:10.239Z,39.38
2023-04-19T05:00:10.213Z,45.00
2023-04-19T05:01:10.881Z,45.00
2023-04-19T05:02:10.213Z,45.00
2023-04-19T05:03:10.310Z,45.00
2023-04-19T05:04:10.436Z,50.62
2023-04-19T05:05:10.165Z,50.62
2023-04-19T05:06:09.451Z,50.62
2023-04-19T05:07:10.109Z,56.25
2023-04-19T05:08:10.118Z,56.25
2023-04-19T05:09:10.411Z,56.25
2023-04-19T05:10:10.118Z,61.88
2023-04-19T05:11:09.712Z,61.88
2023-04-19T05:12:09.293Z,67.50
2023-04-19T05:13:10.037Z,67.50
2023-04-19T05:14:09.679Z,73.12
2023-04-19T05:15:10.007Z,73.12
2023-04-19T05:16:10.076Z,73.12
2023-04-19T05:17:12.471Z,73.12
2023-04-19T05:18:10.429Z,78.75
2023-04-19T05:19:09.873Z,84.38
2023-04-19T05:20:09.876Z,84.38
2023-04-19T05:21:10.647Z,90.00
2023-04-19T05:22:09.922Z,95.62
2023-04-19T05:23:10.626Z,101.25
2023-04-19T05:24:10.656Z,101.25
2023-04-19T05:25:10.662Z,101.25
2023-04-19T05:26:10.605Z,101.25
2023-04-19T05:27:10.565Z,101.25
2023-04-19T05:28:10.613Z,106.88
2023-04-19T05:29:10.561Z,106.88
2023-04-19T05:30:09.217Z,112.50
2023-04-19T05:31:09.817Z,118.12
2023-04-19T05:32:09.768Z,118.12
2023-04-19T05:33:09.831Z,118.12
2023-04-19T05:34:09.742Z,118.12
2023-04-19T05:35:09.730Z,118.12
2023-04-19T05:36:09.722Z,118.12
2023-04-19T05:37:09.742Z,118.12
2023-04-19T05:38:09.690Z,123.75
2023-04-19T05:39:09.659Z,118.12
2023-04-19T05:40:09.696Z,118.12
2023-04-19T05:41:09.657Z,118.12
2023-04-19T05:42:09.637Z,123.75
2023-04-19T05:43:09.775Z,123.75
2023-04-19T05:44:09.591Z,129.38
2023-04-19T05:45:09.590Z,129.38
2023-04-19T05:46:09.621Z,135.00
2023-04-19T05:47:09.570Z,135.00
2023-04-19T05:48:09.652Z,140.62
2023-04-19T05:49:09.792Z,146.25
2023-04-19T05:50:10.225Z,146.25
2023-04-19T05:51:09.529Z,151.88
2023-04-19T05:52:09.500Z,151.88
2023-04-19T05:53:09.487Z,151.88
2023-04-19T05:54:09.461Z,163.12
2023-04-19T05:55:09.473Z,168.75
2023-04-19T05:56:09.481Z,168.75
2023-04-19T05:57:09.446Z,174.38
2023-04-19T05:58:09.420Z,174.38
2023-04-19T05:59:09.387Z,180.00
2023-04-19T06:00:09.423Z,180.00
2023-04-19T06:01:10.050Z,191.25
2023-04-19T06:02:09.097Z,196.88
2023-04-19T06:03:09.607Z,196.88
2023-04-19T06:04:09.422Z,202.50
2023-04-19T06:05:10.560Z,202.50
2023-04-19T06:06:09.349Z,208.12
2023-04-19T06:07:17.799Z,208.12
2023-04-19T06:08:10.285Z,208.12
2023-04-19T06:09:09.292Z,208.12
2023-04-19T06:10:08.725Z,213.75
2023-04-19T06:11:22.004Z,213.75
2023-04-19T06:12:10.225Z,219.38
2023-04-19T06:13:09.213Z,219.38
2023-04-19T06:14:09.220Z,225.00
2023-04-19T06:15:09.867Z,230.62
2023-04-19T06:16:09.250Z,230.62
2023-04-19T06:17:09.159Z,236.25
2023-04-19T06:18:08.969Z,241.88
2023-04-19T06:19:08.912Z,241.88
2023-04-19T06:20:09.132Z,247.50
2023-04-19T06:21:09.104Z,247.50
2023-04-19T06:22:09.131Z,247.50
2023-04-19T06:23:09.111Z,247.50
2023-04-19T06:24:09.087Z,247.50
2023-04-19T06:25:09.055Z,253.12
2023-04-19T06:26:09.038Z,253.12
2023-04-19T06:27:09.028Z,258.75
2023-04-19T06:28:09.023Z,258.75
2023-04-19T06:29:08.982Z,264.38
2023-04-19T06:30:08.992Z,270.00
2023-04-19T06:31:09.231Z,275.62
2023-04-19T06:32:08.960Z,281.25
2023-04-19T06:33:08.955Z,281.25
2023-04-19T06:34:09.660Z,286.88
2023-04-19T06:35:09.650Z,286.88
2023-04-19T06:36:08.907Z,292.50
2023-04-19T06:37:08.902Z,298.12
2023-04-19T06:38:08.905Z,303.75
2023-04-19T06:39:08.844Z,298.12
2023-04-19T06:40:08.850Z,298.12
2023-04-19T06:41:08.836Z,292.50
2023-04-19T06:42:08.839Z,292.50
2023-04-19T06:43:08.814Z,292.50
2023-04-19T06:44:08.821Z,298.12
2023-04-19T06:45:08.787Z,303.75
2023-04-19T06:46:08.792Z,309.38
2023-04-19T06:47:08.773Z,309.38
2023-04-19T06:48:09.447Z,315.00
2023-04-19T06:49:08.981Z,315.00
2023-04-19T06:50:08.736Z,315.00
2023-04-19T06:51:08.704Z,315.00
2023-04-19T06:52:08.684Z,320.62
2023-04-19T06:53:08.672Z,326.25
2023-04-19T06:54:08.662Z,331.88
2023-04-19T06:55:08.649Z,337.50
2023-04-19T06:56:08.632Z,348.75
2023-04-19T06:57:08.620Z,354.38
2023-04-19T06:58:08.601Z,365.62
2023-04-19T06:59:08.594Z,376.88
2023-04-19T07:00:08.554Z,382.50
2023-04-19T07:01:08.581Z,393.75
2023-04-19T07:02:08.614Z,405.00
2023-04-19T07:03:08.776Z,410.62
2023-04-19T07:04:08.728Z,421.88
2023-04-19T07:05:08.490Z,438.75
2023-04-19T07:06:09.168Z,444.38
2023-04-19T07:07:09.170Z,450.00
2023-04-19T07:08:08.460Z,455.62
2023-04-19T07:09:08.487Z,461.25
2023-04-19T07:10:08.411Z,461.25
2023-04-19T07:11:09.101Z,466.88
2023-04-19T07:12:08.423Z,466.88
2023-04-19T07:13:08.408Z,478.12
2023-04-19T07:14:08.401Z,483.75
2023-04-19T07:15:08.351Z,489.38
2023-04-19T07:16:08.179Z,506.25
2023-04-19T07:17:08.380Z,523.12
2023-04-19T07:18:08.359Z,534.38
2023-04-19T07:19:08.305Z,540.00
2023-04-19T07:20:08.421Z,540.00
2023-04-19T07:21:08.295Z,540.00
2023-04-19T07:22:08.268Z,540.00
2023-04-19T07:23:08.267Z,540.00
2023-04-19T07:24:08.250Z,551.25
2023-04-19T07:25:08.926Z,568.12
2023-04-19T07:26:08.217Z,579.38
2023-04-19T07:27:08.881Z,596.25
2023-04-19T07:28:08.186Z,613.12
2023-04-19T07:29:08.864Z,630.00
2023-04-19T07:30:08.135Z,624.38
2023-04-19T07:31:08.824Z,624.38
2023-04-19T07:32:08.935Z,641.25
2023-04-19T07:33:08.933Z,686.25
2023-04-19T07:34:08.162Z,686.25
2023-04-19T07:35:08.074Z,658.12
2023-04-19T07:36:08.100Z,708.75
2023-04-19T07:37:08.068Z,787.50
2023-04-19T07:38:08.049Z,787.50
2023-04-19T07:39:08.061Z,770.62
2023-04-19T07:40:08.767Z,787.50
2023-04-19T07:41:08.741Z,770.62
2023-04-19T07:42:08.681Z,770.62
2023-04-19T07:43:08.713Z,838.12
2023-04-19T07:44:08.694Z,810.00
2023-04-19T07:45:08.713Z,810.00
2023-04-19T07:46:08.674Z,765.00
2023-04-19T07:47:08.657Z,753.75
2023-04-19T07:48:08.203Z,680.62
2023-04-19T07:49:07.896Z,641.25
2023-04-19T07:50:07.877Z,686.25
2023-04-19T07:51:07.889Z,742.50
2023-04-19T07:52:07.872Z,759.38
2023-04-19T07:53:07.856Z,787.50
2023-04-19T07:54:07.844Z,826.88
2023-04-19T07:55:07.797Z,883.12
2023-04-19T07:56:07.826Z,928.12
2023-04-19T07:57:07.809Z,950.62
2023-04-19T07:58:07.776Z,2874.38
2023-04-19T07:59:09.313Z,939.38
2023-04-19T08:00:07.737Z,956.25
2023-04-19T08:01:07.782Z,922.50
2023-04-19T08:02:07.830Z,933.75
2023-04-19T08:03:08.013Z,950.62
2023-04-19T08:04:08.658Z,849.38
2023-04-19T08:05:08.071Z,804.38
2023-04-19T08:06:08.394Z,787.50
2023-04-19T08:07:07.680Z,736.88
2023-04-19T08:08:07.669Z,691.88
2023-04-19T08:09:07.631Z,652.50
2023-04-19T08:10:07.860Z,675.00
2023-04-19T08:11:07.660Z,731.25
2023-04-19T08:12:07.594Z,776.25
2023-04-19T08:13:07.581Z,849.38
2023-04-19T08:14:15.124Z,973.12
2023-04-19T08:17:24.089Z,1147.50
2023-04-19T08:18:08.581Z,1113.75
2023-04-19T08:19:07.513Z,1108.12
2023-04-19T08:20:07.453Z,1057.50
2023-04-19T08:21:07.475Z,1012.50
2023-04-19T08:22:07.457Z,2874.38
2023-04-19T08:23:20.475Z,2874.38
2023-04-19T08:24:09.079Z,1001.25
2023-04-19T08:25:07.390Z,866.25
2023-04-19T08:26:07.406Z,973.12
2023-04-19T08:27:08.112Z,900.00
2023-04-19T08:28:07.370Z,939.38
2023-04-19T08:29:07.382Z,877.50
2023-04-19T08:30:07.317Z,804.38
2023-04-19T08:31:07.376Z,871.88
2023-04-19T08:32:07.368Z,928.12
2023-04-19T08:33:07.992Z,877.50
2023-04-19T08:34:07.354Z,1046.25
2023-04-19T08:35:07.269Z,1035.00
2023-04-19T08:36:07.024Z,1192.50
2023-04-19T08:37:07.020Z,2874.38
2023-04-19T08:38:07.922Z,1310.62
2023-04-19T08:39:14.867Z,1057.50
2023-04-19T08:40:08.183Z,1001.25
2023-04-19T08:41:07.199Z,933.75
2023-04-19T08:42:13.422Z,973.12
2023-04-19T08:43:08.382Z,1018.12
2023-04-19T08:44:08.391Z,1040.62
2023-04-19T08:46:07.993Z,1130.62
2023-04-19T08:47:07.142Z,1158.75
2023-04-19T08:48:07.130Z,1096.88
2023-04-19T08:49:06.610Z,995.62
2023-04-19T08:50:14.024Z,871.88
2023-04-19T08:51:08.800Z,753.75
2023-04-19T08:52:07.050Z,720.00
2023-04-19T08:53:24.078Z,675.00
2023-04-19T08:54:08.025Z,568.12
2023-04-19T08:55:07.024Z,472.50
2023-04-19T08:57:06.976Z,461.25
2023-04-19T08:58:12.261Z,506.25
2023-04-19T08:59:18.159Z,472.50
2023-04-19T09:00:08.618Z,433.12
2023-04-19T09:01:06.971Z,466.88
2023-04-19T09:02:06.990Z,551.25
2023-04-19T09:03:07.093Z,573.75
2023-04-19T09:04:17.163Z,523.12
2023-04-19T09:05:08.821Z,489.38
2023-04-19T09:06:07.580Z,500.62
2023-04-19T09:07:06.876Z,635.62
2023-04-19T09:08:06.817Z,849.38
2023-04-19T09:09:08.742Z,928.12
2023-04-19T09:10:06.993Z,894.38
2023-04-19T09:11:06.891Z,849.38
2023-04-19T09:12:06.758Z,990.00
2023-04-19T09:13:06.762Z,793.12
2023-04-19T09:14:06.746Z,821.25
2023-04-19T09:15:07.965Z,798.75
2023-04-19T09:16:06.758Z,731.25
2023-04-19T09:17:06.720Z,781.88
2023-04-19T09:18:06.733Z,922.50
2023-04-19T09:19:19.552Z,1035.00
2023-04-19T09:20:07.642Z,1035.00
2023-04-19T09:21:06.663Z,922.50
2023-04-19T09:22:06.649Z,776.25
2023-04-19T09:23:07.301Z,641.25
2023-04-19T09:24:06.614Z,523.12
2023-04-19T09:26:22.682Z,365.62
2023-04-19T09:27:07.577Z,326.25
2023-04-19T09:28:06.572Z,309.38
2023-04-19T09:29:06.540Z,298.12
2023-04-19T09:30:07.305Z,298.12
2023-04-19T09:31:20.363Z,298.12
2023-04-19T09:32:07.744Z,309.38
2023-04-19T09:33:06.323Z,331.88
2023-04-19T09:34:06.268Z,354.38
2023-04-19T09:35:06.291Z,376.88
2023-04-19T09:36:06.255Z,399.38
2023-04-19T09:37:13.462Z,455.62
2023-04-19T09:38:07.430Z,500.62
2023-04-19T09:39:06.411Z,506.25
2023-04-19T09:40:06.379Z,506.25
2023-04-19T09:41:06.380Z,556.88
2023-04-19T09:42:05.633Z,675.00
2023-04-19T09:43:29.089Z,815.62
2023-04-19T09:44:33.770Z,905.62
2023-04-19T09:46:06.349Z,967.50
2023-04-19T09:47:06.336Z,995.62
2023-04-19T09:48:06.352Z,1018.12
2023-04-19T09:49:17.142Z,950.62
2023-04-19T09:50:19.305Z,866.25
2023-04-19T09:51:10.561Z,748.12
2023-04-19T09:52:07.269Z,686.25
2023-04-19T09:53:06.194Z,736.88
2023-04-19T09:54:06.225Z,798.75
2023-04-19T09:55:14.655Z,765.00
2023-04-19T09:56:07.155Z,742.50
2023-04-19T09:57:06.143Z,770.62
2023-04-19T09:58:06.169Z,815.62
2023-04-19T09:59:19.944Z,894.38
2023-04-19T10:00:07.077Z,1006.88
2023-04-19T10:01:15.001Z,1051.88
2023-04-19T10:02:07.946Z,1029.38
2023-04-19T10:03:06.143Z,973.12
2023-04-19T10:04:23.887Z,956.25
2023-04-19T10:05:19.813Z,978.75
2023-04-19T10:06:14.495Z,990.00
2023-04-19T10:07:29.281Z,1096.88
2023-04-19T10:08:07.048Z,1254.38
2023-04-19T10:09:06.674Z,1170.00
2023-04-19T10:10:18.577Z,1068.75
2023-04-19T10:11:06.957Z,1102.50
2023-04-19T10:12:18.509Z,1074.38
2023-04-19T10:13:19.278Z,1080.00
2023-04-19T10:14:06.916Z,1119.38
2023-04-19T10:15:05.893Z,1102.50
2023-04-19T10:16:18.119Z,1102.50
2023-04-19T10:17:06.908Z,1198.12
2023-04-19T10:18:05.937Z,1293.75
2023-04-19T10:19:08.188Z,1395.00
2023-04-19T10:20:05.808Z,2874.38
2023-04-19T10:21:05.834Z,2874.38
2023-04-19T10:22:05.797Z,1428.75
2023-04-19T10:23:05.840Z,1400.62
2023-04-19T10:24:06.503Z,1327.50
2023-04-19T10:25:05.746Z,1293.75
2023-04-19T10:26:06.460Z,1260.00
2023-04-19T10:27:06.462Z,1186.88
2023-04-19T10:28:05.737Z,1074.38
2023-04-19T10:29:05.708Z,973.12
2023-04-19T10:30:07.396Z,826.88
2023-04-19T10:31:05.705Z,725.62
2023-04-19T10:32:06.461Z,646.88
2023-04-19T10:33:05.672Z,562.50
2023-04-19T10:34:05.638Z,551.25
2023-04-19T10:35:05.860Z,573.75
2023-04-19T10:36:06.292Z,590.62
2023-04-19T10:37:05.598Z,579.38
2023-04-19T10:38:05.588Z,545.62
2023-04-19T10:39:05.578Z,506.25
2023-04-19T10:40:05.539Z,478.12
2023-04-19T10:41:05.555Z,472.50
2023-04-19T10:42:05.528Z,461.25
2023-04-19T10:43:05.533Z,461.25
2023-04-19T10:44:05.543Z,483.75
2023-04-19T10:45:06.183Z,540.00
2023-04-19T10:46:05.214Z,652.50
2023-04-19T10:47:05.459Z,821.25
2023-04-19T10:48:05.454Z,967.50
2023-04-19T10:49:05.521Z,1040.62
2023-04-19T10:50:05.424Z,1018.12
2023-04-19T10:51:05.383Z,967.50
2023-04-19T10:52:05.396Z,860.62
2023-04-19T10:53:05.379Z,770.62
2023-04-19T10:54:05.149Z,703.12
2023-04-19T10:55:06.085Z,641.25
2023-04-19T10:56:05.359Z,590.62
2023-04-19T10:57:06.251Z,562.50
2023-04-19T10:58:05.324Z,540.00
2023-04-19T10:59:05.063Z,551.25
2023-04-19T11:00:05.298Z,585.00
2023-04-19T11:01:05.083Z,601.88
2023-04-19T11:02:05.477Z,596.25
2023-04-19T11:03:06.102Z,590.62
2023-04-19T11:04:05.674Z,568.12
2023-04-19T11:05:05.244Z,568.12
2023-04-19T11:06:05.435Z,596.25
2023-04-19T11:07:05.189Z,635.62
2023-04-19T11:08:05.175Z,686.25
2023-04-19T11:09:05.172Z,770.62
2023-04-19T11:10:05.888Z,855.00
2023-04-19T11:11:05.120Z,894.38
2023-04-19T11:12:05.170Z,888.75
2023-04-19T11:13:05.103Z,871.88
2023-04-19T11:14:05.098Z,877.50
2023-04-19T11:15:05.329Z,888.75
2023-04-19T11:16:05.072Z,883.12
2023-04-19T11:17:05.611Z,843.75
2023-04-19T11:18:12.443Z,815.62
2023-04-19T11:19:06.020Z,781.88
2023-04-19T11:20:05.016Z,736.88
2023-04-19T11:21:05.258Z,675.00
2023-04-19T11:22:04.974Z,641.25
2023-04-19T11:23:04.978Z,635.62
2023-04-19T11:24:04.988Z,601.88
2023-04-19T11:25:04.937Z,528.75
2023-04-19T11:26:04.941Z,506.25
2023-04-19T11:27:04.889Z,500.62
2023-04-19T11:28:04.898Z,466.88
2023-04-19T11:29:04.889Z,427.50
2023-04-19T11:30:04.871Z,410.62
2023-04-19T11:31:05.096Z,382.50
2023-04-19T11:32:04.851Z,388.12
2023-04-19T11:33:04.899Z,450.00
2023-04-19T11:34:04.822Z,500.62
2023-04-19T11:35:04.809Z,517.50
2023-04-19T11:36:04.788Z,545.62
2023-04-19T11:37:05.459Z,573.75
2023-04-19T11:38:04.767Z,573.75
2023-04-19T11:39:04.757Z,573.75
2023-04-19T11:40:05.307Z,545.62
2023-04-19T11:41:04.724Z,495.00
2023-04-19T11:42:04.676Z,461.25
2023-04-19T11:43:04.692Z,455.62
2023-04-19T11:44:04.728Z,523.12
2023-04-19T11:45:06.164Z,573.75
2023-04-19T11:46:04.655Z,540.00
2023-04-19T11:47:04.819Z,466.88
2023-04-19T11:48:04.649Z,433.12
2023-04-19T11:49:04.616Z,478.12
2023-04-19T11:50:04.361Z,556.88
2023-04-19T11:51:04.589Z,568.12
2023-04-19T11:52:05.930Z,562.50
2023-04-19T11:53:04.561Z,601.88
2023-04-19T11:54:04.376Z,613.12
2023-04-19T11:55:04.534Z,596.25
2023-04-19T11:56:04.520Z,658.12
2023-04-19T11:57:04.493Z,826.88
2023-04-19T11:58:04.368Z,905.62
2023-04-19T11:59:04.468Z,883.12
2023-04-19T12:00:04.477Z,838.12
2023-04-19T12:01:04.452Z,787.50
2023-04-19T12:02:04.475Z,753.75
2023-04-19T12:03:04.545Z,765.00
2023-04-19T12:04:04.504Z,866.25
2023-04-19T12:05:04.483Z,961.88
2023-04-19T12:06:04.629Z,1051.88
2023-04-19T12:07:05.057Z,1125.00
2023-04-19T12:08:05.075Z,1158.75
2023-04-19T12:09:04.358Z,1170.00
2023-04-19T12:10:04.337Z,1186.88
2023-04-19T12:11:04.319Z,1215.00
2023-04-19T12:12:04.311Z,1260.00
2023-04-19T12:13:04.553Z,1321.88
2023-04-19T12:14:04.268Z,1344.38
2023-04-19T12:15:04.031Z,1310.62
2023-04-19T12:16:04.240Z,1299.38
2023-04-19T12:17:04.944Z,1338.75
2023-04-19T12:18:04.959Z,1417.50
2023-04-19T12:19:04.201Z,1406.25
2023-04-19T12:20:04.201Z,1389.38
2023-04-19T12:21:04.168Z,1372.50
2023-04-19T12:22:04.890Z,1355.62
2023-04-19T12:23:04.130Z,1327.50
2023-04-19T12:24:04.128Z,1299.38
2023-04-19T12:25:04.342Z,1282.50
2023-04-19T12:26:04.101Z,1265.62
2023-04-19T12:27:04.111Z,1248.75
2023-04-19T12:28:04.768Z,1209.38
2023-04-19T12:29:04.158Z,1181.25
2023-04-19T12:30:04.043Z,1175.62
2023-04-19T12:31:04.058Z,1209.38
2023-04-19T12:32:04.030Z,1215.00
2023-04-19T12:33:04.308Z,1215.00
2023-04-19T12:34:04.000Z,1198.12
2023-04-19T12:35:04.231Z,1153.12
2023-04-19T12:36:03.958Z,1141.88
2023-04-19T12:37:03.955Z,1125.00
2023-04-19T12:38:04.621Z,1102.50
2023-04-19T12:39:03.920Z,1091.25
2023-04-19T12:40:03.902Z,1074.38
2023-04-19T12:41:04.572Z,1085.62
2023-04-19T12:42:03.893Z,1141.88
2023-04-19T12:43:03.843Z,1136.25
2023-04-19T12:44:04.532Z,1186.88
2023-04-19T12:45:03.856Z,1305.00
2023-04-19T12:46:04.521Z,1260.00
2023-04-19T12:47:04.561Z,2874.38
2023-04-19T12:48:03.836Z,1271.25
2023-04-19T12:49:04.023Z,1378.12
2023-04-19T12:50:03.811Z,2874.38
2023-04-19T12:51:03.819Z,2874.38